O Brien, Texas
Current Conditions -  °F | °C
As of 10:58 PM on Friday 19 Dec 2014 (Local Time) from KDYS Reporting Station
Overcast Overcast  
Wind Chill: 42°   Ceiling: 1400
Heat Index: 45°   Visibility: 10mi
Dew Point: 38°   Wind: 5mph
Humidity: 76%   Direction: 40°NE
Pressure: 30.2"   Gusts: NA
Location:  33.3819°N, 99.8437°W
Report Text: KDYS 200458Z AUTO 04004KT 10SM OVC014 07/03 A3020 RMK AO2 SLP227 T00710032 $
Loading
Personal Weather Stations






























Interactive Weather Map New forecast layout! Learn more

10-Day Weather Forecast

Advertisements
Track Severe Weather on mobile